Time;durP1;ratioP1;P1;durP2;ratioP2;P2;SDS_P1;SDS_P2;PMS_P1;PMS_P2;Temp;Humidity;BMP_temperature;BMP_pressure;BME280_temperature;BME280_humidity;BME280_pressure;Samples;Min_cycle;Max_cycle;Signal;HPM_P1;HPM_P2
2022/07/28 00:00:21;;;;;;;8.30;2.45;;;;;;;21.31;42.77;102136.38;5007247;28;20033;-77
2022/07/28 00:02:47;;;;;;;5.45;2.60;;;;;;;21.29;43.26;102142.13;5007659;28;20104;-76
2022/07/28 00:05:12;;;;;;;6.20;2.20;;;;;;;21.28;43.07;102137.78;5006407;28;20050;-77
2022/07/28 00:07:38;;;;;;;5.63;2.65;;;;;;;21.24;43.52;102130.34;5005918;28;20042;-77
2022/07/28 00:10:04;;;;;;;4.75;2.15;;;;;;;21.25;43.29;102138.28;5008093;28;20026;-75
2022/07/28 00:12:29;;;;;;;7.13;2.42;;;;;;;21.22;43.11;102136.09;5010520;28;20050;-75
2022/07/28 00:14:55;;;;;;;4.55;2.72;;;;;;;21.13;43.11;102137.66;5008464;28;20044;-76
2022/07/28 00:17:20;;;;;;;6.30;2.47;;;;;;;21.15;43.34;102127.28;5009313;28;20041;-76
2022/07/28 00:19:45;;;;;;;4.93;2.47;;;;;;;21.11;43.31;102136.28;5011182;28;20038;-76
2022/07/28 00:22:11;;;;;;;4.75;2.55;;;;;;;20.99;43.68;102139.19;5007658;28;20025;-77
2022/07/28 00:24:36;;;;;;;10.55;3.30;;;;;;;20.99;43.80;102125.53;5011236;28;20041;-76
2022/07/28 00:27:03;;;;;;;4.80;2.60;;;;;;;21.05;43.57;102132.69;5007214;28;20137;-76
2022/07/28 00:29:28;;;;;;;6.15;2.38;;;;;;;21.02;43.52;102119.56;5011092;28;20265;-75
2022/07/28 00:31:54;;;;;;;3.60;2.50;;;;;;;20.91;43.84;102121.34;5011212;28;20026;-77
2022/07/28 00:34:19;;;;;;;13.05;3.20;;;;;;;20.86;43.85;102120.50;5011494;28;20033;-76
2022/07/28 00:36:45;;;;;;;6.20;2.63;;;;;;;20.92;44.04;102122.19;5008022;28;20442;-76
2022/07/28 00:39:10;;;;;;;5.55;2.70;;;;;;;20.90;43.85;102127.91;5010908;28;20038;-76
2022/07/28 00:41:36;;;;;;;5.25;3.20;;;;;;;20.73;44.53;102120.94;5009325;28;20038;-77
2022/07/28 00:44:04;;;;;;;6.10;2.53;;;;;;;20.82;44.32;102124.84;5010773;28;20069;-75
2022/07/28 00:46:29;;;;;;;7.15;2.95;;;;;;;20.71;44.39;102120.38;5011109;28;20030;-79
2022/07/28 00:48:54;;;;;;;6.00;2.88;;;;;;;20.81;44.07;102120.47;5010914;28;20556;-76
2022/07/28 00:51:22;;;;;;;7.95;3.20;;;;;;;20.70;44.38;102125.03;5010913;28;20033;-76
2022/07/28 00:53:48;;;;;;;5.70;3.08;;;;;;;20.83;43.90;102121.84;5011534;28;20034;-76
2022/07/28 00:56:14;;;;;;;9.27;3.30;;;;;;;20.78;44.01;102115.50;5011438;28;20042;-77
2022/07/28 00:58:40;;;;;;;6.97;3.38;;;;;;;20.80;43.89;102118.81;5010223;28;20070;-75
2022/07/28 01:01:08;;;;;;;8.27;3.33;;;;;;;20.51;44.63;102123.78;5011127;28;20572;-77
2022/07/28 01:03:37;;;;;;;10.18;4.15;;;;;;;20.59;44.78;102117.84;5010201;28;20034;-76
2022/07/28 01:06:24;;;;;;;5.57;3.58;;;;;;;20.75;44.03;102108.69;4990382;28;20049;-76
2022/07/28 01:09:18;;;;;;;3.67;2.85;;;;;;;20.72;44.45;102106.47;4992006;28;20061;-76
2022/07/28 01:11:53;;;;;;;8.13;3.33;;;;;;;20.77;44.19;102103.78;4991674;28;20078;-76
2022/07/28 01:14:21;;;;;;;4.00;2.72;;;;;;;20.66;44.59;102112.13;4991491;28;20129;-78
2022/07/28 01:17:00;;;;;;;10.82;3.90;;;;;;;20.56;45.36;102112.88;4990769;28;20050;-76
2022/07/28 01:19:47;;;;;;;7.60;3.45;;;;;;;20.76;44.51;102106.75;4990171;28;20030;-75
2022/07/28 01:22:21;;;;;;;7.10;3.17;;;;;;;20.76;44.50;102107.59;4989944;28;20050;-76
2022/07/28 01:24:59;;;;;;;8.93;3.65;;;;;;;20.76;44.23;102104.03;4991285;28;20097;-76
2022/07/28 01:28:01;;;;;;;8.88;3.60;;;;;;;20.74;44.48;102096.09;4991493;28;20074;-76
2022/07/28 01:30:43;;;;;;;5.75;2.92;;;;;;;20.66;44.97;102109.41;4991364;28;20046;-77
2022/07/28 01:33:16;;;;;;;6.88;3.20;;;;;;;20.65;44.81;102097.69;4991538;28;20126;-76
2022/07/28 01:35:55;;;;;;;7.15;3.10;;;;;;;20.64;45.04;102097.91;4991520;28;20058;-76
2022/07/28 01:38:22;;;;;;;4.63;2.92;;;;;;;20.73;44.64;102101.81;4991809;28;20053;-75
2022/07/28 01:40:52;;;;;;;4.88;3.22;;;;;;;20.66;44.82;102095.75;4991550;28;20038;-75
2022/07/28 01:43:23;;;;;;;6.30;3.30;;;;;;;20.56;45.00;102099.22;4992016;28;20050;-76
2022/07/28 01:45:49;;;;;;;9.95;2.72;;;;;;;20.65;45.12;102091.38;4991794;28;20041;-76
2022/07/28 01:48:17;;;;;;;6.88;2.72;;;;;;;20.48;45.28;102096.97;4991455;28;20038;-77
2022/07/28 01:50:45;;;;;;;7.95;3.13;;;;;;;20.59;44.79;102096.00;4991304;28;20418;-75
2022/07/28 01:53:13;;;;;;;5.63;2.80;;;;;;;20.46;45.07;102098.34;4991149;28;20049;-77
2022/07/28 01:55:42;;;;;;;7.15;3.35;;;;;;;20.49;45.20;102095.91;4991253;28;20095;-76
2022/07/28 01:58:08;;;;;;;4.47;2.70;;;;;;;20.49;45.18;102089.59;4991432;28;20022;-77
2022/07/28 02:00:35;;;;;;;4.93;3.10;;;;;;;20.34;44.79;102090.31;4989596;28;20054;-76
2022/07/28 02:03:05;;;;;;;7.20;3.13;;;;;;;20.41;45.27;102090.09;4991229;28;20093;-77
2022/07/28 02:05:32;;;;;;;;;;;;;;;20.32;45.45;102087.03;4991516;28;20379;-75
2022/07/28 02:07:59;;;;;;;4.07;2.50;;;;;;;20.26;45.35;102085.31;4989751;28;19965;-76
2022/07/28 02:10:27;;;;;;;4.80;3.00;;;;;;;20.14;45.91;102081.91;4991788;28;20039;-77
2022/07/28 02:12:54;;;;;;;4.50;2.90;;;;;;;20.22;45.69;102084.19;4990851;28;20050;-76
2022/07/28 02:15:21;;;;;;;3.75;2.60;;;;;;;20.17;46.13;102072.38;4991179;28;20042;-77
2022/07/28 02:17:48;;;;;;;6.75;3.10;;;;;;;20.12;45.90;102071.25;4991210;28;20061;-77
2022/07/28 02:20:15;;;;;;;7.88;2.72;;;;;;;20.04;46.00;102066.25;4989866;28;20066;-78
2022/07/28 02:22:43;;;;;;;9.90;2.63;;;;;;;20.05;45.87;102065.16;4991148;28;20369;-76
2022/07/28 02:25:09;;;;;;;6.90;2.58;;;;;;;20.01;45.97;102063.19;4991445;28;20038;-77
2022/07/28 02:27:43;;;;;;;4.07;2.50;;;;;;;19.98;46.60;102063.72;4990696;28;20050;-76
2022/07/28 02:30:15;;;;;;;6.30;2.45;;;;;;;20.04;46.15;102068.16;4990689;28;20053;-76
2022/07/28 02:32:55;;;;;;;5.47;3.30;;;;;;;19.99;46.14;102068.09;4995312;28;20084;-76
2022/07/28 02:35:31;;;;;;;4.85;2.95;;;;;;;20.05;46.05;102069.78;5009644;28;20053;-77
2022/07/28 02:38:00;;;;;;;8.13;2.90;;;;;;;19.92;46.10;102062.84;5010271;28;20045;-77
2022/07/28 02:40:32;;;;;;;7.30;3.03;;;;;;;19.89;46.33;102066.06;5009489;28;20041;-76
2022/07/28 02:42:58;;;;;;;8.60;2.60;;;;;;;19.82;46.69;102067.38;5010100;28;20456;-76
2022/07/28 02:45:27;;;;;;;8.68;2.50;;;;;;;19.86;46.41;102060.31;5009947;28;20482;-76
2022/07/28 02:48:01;;;;;;;5.07;2.50;;;;;;;19.80;46.43;102058.63;4992041;28;20380;-77
2022/07/28 02:50:28;;;;;;;6.93;2.60;;;;;;;19.72;46.79;102073.53;4990454;28;20042;-77
2022/07/28 02:53:01;;;;;;;4.03;2.80;;;;;;;19.60;47.52;102072.00;4990748;28;20030;-77
2022/07/28 02:55:29;;;;;;;3.75;2.85;;;;;;;19.64;47.56;102062.25;4990912;28;20050;-77
2022/07/28 02:57:57;;;;;;;6.43;2.83;;;;;;;19.58;46.94;102057.81;4989012;28;20034;-75
2022/07/28 03:00:24;;;;;;;8.70;3.72;;;;;;;19.67;47.38;102064.47;4990680;28;20046;-76
2022/07/28 03:02:50;;;;;;;7.28;3.00;;;;;;;19.73;46.95;102061.56;4990414;28;20088;-75
2022/07/28 03:05:16;;;;;;;6.47;2.88;;;;;;;19.67;47.12;102065.31;4989602;28;20035;-75
2022/07/28 03:07:41;;;;;;;6.45;2.38;;;;;;;19.58;47.11;102064.09;4990046;28;20042;-75
2022/07/28 03:10:08;;;;;;;8.43;2.90;;;;;;;19.61;47.13;102065.50;4990357;28;20228;-75
2022/07/28 03:12:33;;;;;;;5.38;2.65;;;;;;;19.48;47.85;102074.06;4989811;28;20065;-74
2022/07/28 03:14:59;;;;;;;8.60;3.45;;;;;;;19.47;47.66;102075.97;4989774;28;20038;-76
2022/07/28 03:17:24;;;;;;;10.77;3.40;;;;;;;19.31;48.33;102074.09;4989729;28;20502;-77
2022/07/28 03:19:50;;;;;;;8.68;3.10;;;;;;;19.48;47.43;102074.06;4989945;28;20042;-75
2022/07/28 03:22:15;;;;;;;3.80;2.60;;;;;;;19.42;47.48;102075.09;4990527;28;20030;-76
2022/07/28 03:24:45;;;;;;;3.78;2.60;;;;;;;19.49;47.45;102079.28;4989784;28;20038;-75
2022/07/28 03:27:23;;;;;;;6.28;3.15;;;;;;;19.36;48.06;102081.56;4989368;28;20030;-76
2022/07/28 03:29:53;;;;;;;2.97;2.53;;;;;;;19.36;48.03;102076.91;4990270;28;20042;-75
2022/07/28 03:32:20;;;;;;;8.05;3.10;;;;;;;19.40;47.70;102072.59;4989422;28;20145;-76
2022/07/28 03:34:47;;;;;;;6.30;3.13;;;;;;;19.31;47.48;102076.81;4989734;28;20846;-76
2022/07/28 03:37:17;;;;;;;9.07;3.15;;;;;;;19.34;48.24;102078.25;4990316;28;20137;-76
2022/07/28 03:39:46;;;;;;;7.75;3.08;;;;;;;19.25;47.77;102089.56;4989719;28;20038;-76
2022/07/28 03:42:16;;;;;;;7.47;3.05;;;;;;;19.25;47.93;102077.81;4990188;28;20039;-74
2022/07/28 03:44:41;;;;;;;7.75;2.90;;;;;;;19.25;48.27;102080.56;4988570;28;20034;-75
2022/07/28 03:47:07;;;;;;;7.32;2.60;;;;;;;19.29;48.16;102087.16;4993764;28;20092;-76
2022/07/28 03:49:32;;;;;;;5.90;2.88;;;;;;;19.24;48.19;102087.09;4998824;28;20097;-74
2022/07/28 03:51:57;;;;;;;5.60;2.70;;;;;;;19.22;48.26;102090.03;5013546;28;20423;-74
2022/07/28 03:54:23;;;;;;;11.55;3.60;;;;;;;19.12;48.73;102089.91;4978941;28;20041;-76
2022/07/28 03:56:49;;;;;;;6.32;2.95;;;;;;;19.27;48.29;102089.31;4974077;28;20043;-74
2022/07/28 03:59:14;;;;;;;7.50;4.10;;;;;;;19.11;48.80;102087.44;4987550;28;20046;-75
2022/07/28 04:01:40;;;;;;;8.77;2.72;;;;;;;19.21;48.04;102088.41;4986184;28;20081;-77
2022/07/28 04:04:05;;;;;;;5.25;3.13;;;;;;;19.24;48.23;102093.34;4992893;28;20058;-77
2022/07/28 04:06:31;;;;;;;13.23;3.60;;;;;;;19.20;47.95;102100.38;4993902;28;20538;-77
2022/07/28 04:08:56;;;;;;;4.35;3.58;;;;;;;19.23;48.62;102094.44;4993709;28;20150;-75
2022/07/28 04:11:22;;;;;;;5.75;2.97;;;;;;;19.19;48.55;102097.91;4993170;28;20073;-74
2022/07/28 04:13:47;;;;;;;7.38;3.63;;;;;;;19.05;49.15;102097.44;4993926;28;20034;-76
2022/07/28 04:16:12;;;;;;;5.40;3.28;;;;;;;19.22;48.59;102090.03;5006401;28;20053;-76
2022/07/28 04:18:38;;;;;;;7.70;3.72;;;;;;;19.31;48.68;102085.00;5008447;28;20042;-75
2022/07/28 04:21:04;;;;;;;6.28;3.30;;;;;;;19.45;48.35;102094.50;4994052;28;20027;-76
2022/07/28 04:23:29;;;;;;;7.38;3.42;;;;;;;19.43;48.31;102099.38;4993012;28;20598;-76
2022/07/28 04:25:55;;;;;;;4.22;2.72;;;;;;;19.51;47.70;102104.38;4994397;28;20030;-75
2022/07/28 04:28:20;;;;;;;5.93;3.88;;;;;;;19.51;48.23;102096.19;4994515;28;20482;-76
2022/07/28 04:30:46;;;;;;;7.97;3.22;;;;;;;19.61;48.00;102092.78;4993223;28;20061;-75
2022/07/28 04:33:11;;;;;;;5.22;2.90;;;;;;;19.67;47.68;102098.03;4992649;28;20046;-75
2022/07/28 04:35:37;;;;;;;8.60;3.28;;;;;;;19.60;48.09;102107.47;4992173;28;20142;-76
2022/07/28 04:38:02;;;;;;;6.22;3.35;;;;;;;19.92;47.75;102102.94;4992240;28;20035;-76
2022/07/28 04:40:27;;;;;;;8.07;3.08;;;;;;;19.94;47.42;102104.34;4993044;28;20479;-76
2022/07/28 04:42:54;;;;;;;7.97;3.42;;;;;;;20.08;47.26;102102.03;4992095;28;20049;-77
2022/07/28 04:45:20;;;;;;;7.72;3.47;;;;;;;20.10;47.15;102099.88;4992858;28;20065;-78
2022/07/28 04:47:45;;;;;;;7.93;3.03;;;;;;;20.27;46.74;102099.78;4991459;28;20521;-75
2022/07/28 04:50:14;;;;;;;5.90;3.38;;;;;;;20.31;46.99;102104.47;4989283;28;20050;-76
2022/07/28 04:52:40;;;;;;;6.15;2.75;;;;;;;20.38;46.66;102107.81;4992109;28;20066;-75
2022/07/28 04:55:06;;;;;;;5.03;2.88;;;;;;;20.42;46.36;102108.94;4993150;28;20444;-76
2022/07/28 04:57:31;;;;;;;6.05;2.50;;;;;;;20.55;46.01;102113.97;5005300;28;20065;-75
2022/07/28 04:59:59;;;;;;;5.30;2.80;;;;;;;20.62;45.63;102122.75;4991938;28;20141;-78
2022/07/28 05:02:25;;;;;;;5.10;2.60;;;;;;;20.98;45.15;102112.94;4992420;28;20041;-76
2022/07/28 05:04:50;;;;;;;6.35;3.38;;;;;;;21.00;44.79;102111.59;4992113;28;20046;-76
2022/07/28 05:07:16;;;;;;;4.35;2.28;;;;;;;21.10;44.65;102112.75;4992698;28;20479;-76
2022/07/28 05:09:41;;;;;;;4.40;2.40;;;;;;;21.18;44.44;102115.00;4991412;28;20049;-75
2022/07/28 05:12:07;;;;;;;4.32;1.90;;;;;;;21.01;44.59;102106.97;4991210;28;20124;-77
2022/07/28 05:14:32;;;;;;;18.13;2.45;;;;;;;21.12;44.19;102110.59;4992073;28;20422;-77
2022/07/28 05:16:58;;;;;;;6.90;2.28;;;;;;;21.21;44.05;102107.09;4991489;28;20097;-75
2022/07/28 05:19:23;;;;;;;7.68;2.20;;;;;;;21.41;43.72;102101.72;4989458;28;20049;-75
2022/07/28 05:21:48;;;;;;;5.78;2.25;;;;;;;21.62;43.30;102114.41;4991612;28;20042;-76
2022/07/28 05:24:14;;;;;;;6.50;1.80;;;;;;;21.54;43.39;102109.44;4991972;28;20041;-77
2022/07/28 05:26:39;;;;;;;6.82;2.28;;;;;;;21.50;43.38;102102.06;4991896;28;20091;-77
2022/07/28 05:29:05;;;;;;;6.97;2.70;;;;;;;21.47;43.79;102108.03;4991872;28;20079;-76
2022/07/28 05:31:31;;;;;;;5.80;2.00;;;;;;;21.50;43.78;102110.25;4991582;28;20034;-76
2022/07/28 05:33:56;;;;;;;12.52;2.50;;;;;;;21.59;43.11;102114.94;4991958;28;20229;-75
2022/07/28 05:36:21;;;;;;;7.70;2.42;;;;;;;21.55;42.98;102111.09;4992141;28;20046;-77
2022/07/28 05:38:47;;;;;;;5.30;2.13;;;;;;;21.42;43.71;102108.03;4991508;28;20498;-75
2022/07/28 05:41:13;;;;;;;6.45;2.00;;;;;;;21.71;42.78;102101.03;4991693;28;20046;-76
2022/07/28 05:43:38;;;;;;;13.45;2.65;;;;;;;21.51;43.40;102101.78;4991862;28;20533;-74
2022/07/28 05:46:04;;;;;;;7.25;2.83;;;;;;;21.37;43.25;102111.56;4990779;28;20030;-76
2022/07/28 05:48:30;;;;;;;4.78;2.00;;;;;;;21.69;42.57;102108.69;4990201;28;20049;-75
2022/07/28 05:50:55;;;;;;;14.27;2.75;;;;;;;21.53;43.15;102113.28;5009533;28;20371;-75
2022/07/28 05:53:21;;;;;;;5.60;2.08;;;;;;;21.67;43.11;102110.88;5011308;28;20034;-76
2022/07/28 05:55:47;;;;;;;11.10;2.47;;;;;;;21.69;43.20;102119.63;5010691;28;20492;-76
2022/07/28 05:58:12;;;;;;;7.53;2.30;;;;;;;21.38;44.18;102117.84;5011351;28;20617;-77
2022/07/28 06:00:38;;;;;;;4.57;2.80;;;;;;;21.28;44.25;102118.63;5010563;28;20026;-75
2022/07/28 06:03:04;;;;;;;5.38;2.58;;;;;;;21.11;44.20;102117.94;5010741;28;20095;-75
2022/07/28 06:05:31;;;;;;;6.53;2.00;;;;;;;21.31;44.04;102118.06;4993373;28;20126;-75
2022/07/28 06:07:57;;;;;;;9.00;2.10;;;;;;;21.38;43.78;102121.41;4989745;28;20092;-76
2022/07/28 06:10:25;;;;;;;8.18;2.22;;;;;;;21.54;43.40;102117.63;4991701;28;20080;-76
2022/07/28 06:12:53;;;;;;;4.18;2.00;;;;;;;21.45;43.76;102116.50;4991023;28;20051;-75
2022/07/28 06:15:21;;;;;;;5.55;2.10;;;;;;;21.47;44.10;102119.81;4991324;28;20080;-76
2022/07/28 06:17:51;;;;;;;7.93;2.42;;;;;;;21.58;43.93;102126.97;4990761;28;20121;-77
2022/07/28 06:20:17;;;;;;;3.23;1.63;;;;;;;21.67;43.63;102133.59;4990634;28;20042;-76
2022/07/28 06:22:46;;;;;;;4.07;1.70;;;;;;;21.75;43.21;102134.97;4975659;28;20113;-77
2022/07/28 06:25:17;;;;;;;3.60;2.25;;;;;;;21.81;43.30;102123.00;4972163;28;20030;-75
2022/07/28 06:27:47;;;;;;;3.03;1.67;;;;;;;21.87;43.10;102129.28;4975223;28;20545;-77
2022/07/28 06:30:13;;;;;;;3.97;2.05;;;;;;;22.06;42.94;102120.31;4990488;28;20193;-77
2022/07/28 06:32:39;;;;;;;6.18;2.42;;;;;;;21.98;42.86;102125.50;4990479;28;20037;-76
2022/07/28 06:35:05;;;;;;;3.60;2.17;;;;;;;22.16;42.90;102122.25;4990262;28;20047;-77
2022/07/28 06:37:31;;;;;;;4.07;1.77;;;;;;;22.02;43.58;102121.13;4991404;28;20030;-75
2022/07/28 06:39:56;;;;;;;7.60;2.17;;;;;;;22.22;43.07;102116.53;4990885;28;20553;-76
2022/07/28 06:42:22;;;;;;;7.18;2.35;;;;;;;22.43;42.35;102117.34;4988976;28;20096;-76
2022/07/28 06:44:50;;;;;;;6.43;2.47;;;;;;;22.19;42.96;102125.25;4991509;28;20431;-77
2022/07/28 06:47:15;;;;;;;4.72;1.67;;;;;;;21.79;43.40;102128.72;4990985;28;20043;-77
2022/07/28 06:49:40;;;;;;;5.20;2.17;;;;;;;21.57;43.96;102128.06;4998932;28;20037;-77
2022/07/28 06:52:06;;;;;;;4.70;1.88;;;;;;;21.45;44.26;102118.41;5007427;28;20022;-76
2022/07/28 06:54:32;;;;;;;5.07;2.25;;;;;;;22.07;43.30;102115.69;4991837;28;20043;-76
2022/07/28 06:56:57;;;;;;;6.80;2.28;;;;;;;22.19;42.98;102111.56;4992822;28;20045;-76
2022/07/28 06:59:22;;;;;;;6.30;1.77;;;;;;;22.41;42.79;102108.59;5009222;28;20117;-76
2022/07/28 07:01:48;;;;;;;9.40;2.10;;;;;;;22.33;43.32;102111.88;4999263;28;20550;-76
2022/07/28 07:04:13;;;;;;;6.25;2.15;;;;;;;22.21;43.32;102108.59;5017063;28;20017;-76
2022/07/28 07:06:39;;;;;;;6.32;1.90;;;;;;;22.73;42.42;102111.09;5008976;28;20049;-76
2022/07/28 07:09:04;;;;;;;3.72;1.65;;;;;;;23.02;41.26;102110.22;4999746;28;20394;-75
2022/07/28 07:11:29;;;;;;;7.93;1.83;;;;;;;23.00;41.45;102111.59;5007949;28;20084;-76
2022/07/28 07:13:55;;;;;;;4.30;1.48;;;;;;;23.12;41.07;102098.41;5009471;28;20049;-76
2022/07/28 07:16:20;;;;;;;6.47;1.60;;;;;;;23.11;40.69;102103.09;5001488;28;20038;-75
2022/07/28 07:18:47;;;;;;;9.13;1.88;;;;;;;23.14;40.33;102110.75;4992026;28;20050;-76
2022/07/28 07:21:50;;;;;;;10.70;1.48;;;;;;;23.21;40.50;102102.25;5011096;28;20513;-75
2022/07/28 07:24:16;;;;;;;5.85;1.60;;;;;;;22.97;40.93;102107.50;4980532;28;20044;-76
2022/07/28 07:26:41;;;;;;;7.88;1.80;;;;;;;22.72;40.88;102098.50;4989111;28;20427;-77
2022/07/28 07:29:07;;;;;;;5.80;1.60;;;;;;;23.04;40.45;102108.03;4979869;28;20514;-75
2022/07/28 07:31:34;;;;;;;4.40;2.03;;;;;;;22.97;40.88;102106.69;4987732;28;20045;-76
2022/07/28 07:33:59;;;;;;;5.15;1.75;;;;;;;23.25;39.81;102111.56;4973332;28;20454;-77
2022/07/28 07:36:25;;;;;;;5.60;1.60;;;;;;;23.28;39.25;102100.03;4983139;28;20049;-75
2022/07/28 07:38:50;;;;;;;5.88;1.15;;;;;;;23.16;39.72;102105.81;4983545;28;20030;-77
2022/07/28 07:41:17;;;;;;;6.57;1.02;;;;;;;23.26;38.29;102107.69;4987515;28;20803;-75
2022/07/28 07:43:43;;;;;;;4.88;1.23;;;;;;;23.69;36.77;102101.53;4988141;28;20157;-75
2022/07/28 07:46:08;;;;;;;2.10;0.80;;;;;;;23.57;36.78;102086.50;4988015;28;20038;-76
2022/07/28 07:48:34;;;;;;;3.17;1.10;;;;;;;23.90;36.77;102092.06;4988411;28;20659;-74
2022/07/28 07:50:59;;;;;;;7.65;1.00;;;;;;;24.14;35.21;102094.97;5006603;28;20061;-77
2022/07/28 07:53:25;;;;;;;10.35;0.98;;;;;;;23.63;36.09;102097.16;5007643;28;20100;-75
2022/07/28 07:55:50;;;;;;;3.22;0.82;;;;;;;24.64;35.12;102094.59;5007032;28;20157;-77
2022/07/28 07:58:16;;;;;;;1.40;0.82;;;;;;;24.96;34.38;102088.53;4991893;28;20042;-77
2022/07/28 08:00:42;;;;;;;3.08;1.13;;;;;;;24.92;33.80;102091.03;4986752;28;20027;-75
2022/07/28 08:03:07;;;;;;;2.33;0.70;;;;;;;24.61;33.39;102088.84;4986330;28;20066;-76
2022/07/28 08:05:33;;;;;;;4.93;0.95;;;;;;;24.36;33.08;102090.69;4984653;28;20363;-77
2022/07/28 08:07:58;;;;;;;2.35;0.60;;;;;;;25.19;32.40;102083.06;4986754;28;20411;-77
2022/07/28 08:10:24;;;;;;;4.78;0.82;;;;;;;25.20;32.57;102086.59;4986397;28;20524;-77
2022/07/28 08:12:49;;;;;;;3.10;0.80;;;;;;;25.06;32.47;102082.94;4986499;28;20050;-75
2022/07/28 08:15:14;;;;;;;3.75;0.93;;;;;;;24.78;32.43;102081.84;4973496;28;20117;-75
2022/07/28 08:17:40;;;;;;;4.60;0.80;;;;;;;24.58;32.84;102086.66;4985479;28;20577;-75
2022/07/28 08:20:06;;;;;;;6.40;1.13;;;;;;;24.58;32.33;102082.00;4977864;28;20034;-76
2022/07/28 08:22:31;;;;;;;1.85;0.50;;;;;;;24.91;31.95;102083.06;4977050;28;20105;-74
2022/07/28 08:24:59;;;;;;;1.92;0.80;;;;;;;25.35;31.49;102086.44;4976506;28;20049;-77
2022/07/28 08:27:25;;;;;;;2.67;0.85;;;;;;;25.45;30.85;102082.78;4989887;28;20092;-76
2022/07/28 08:29:50;;;;;;;8.38;0.70;;;;;;;25.27;30.61;102073.34;5005510;28;20709;-75
2022/07/28 08:32:16;;;;;;;1.08;0.52;;;;;;;24.89;31.54;102077.06;5006912;28;20041;-76
2022/07/28 08:34:41;;;;;;;2.78;0.90;;;;;;;25.53;30.86;102082.13;4998733;28;20026;-75
2022/07/28 08:37:06;;;;;;;1.65;1.05;;;;;;;25.03;30.81;102084.34;4988998;28;20042;-77
2022/07/28 08:39:33;;;;;;;1.17;0.70;;;;;;;25.51;29.76;102081.59;4989780;28;20042;-75
2022/07/28 08:41:59;;;;;;;2.08;0.70;;;;;;;25.37;30.46;102084.22;4990009;28;20394;-76
2022/07/28 08:44:30;;;;;;;4.97;0.70;;;;;;;25.65;30.66;102074.25;4990058;28;20046;-75
2022/07/28 08:46:58;;;;;;;0.95;0.50;;;;;;;24.78;31.34;102070.03;4989854;28;20114;-76
2022/07/28 08:49:24;;;;;;;2.65;0.45;;;;;;;25.40;30.55;102080.06;4996402;28;20034;-76
2022/07/28 08:51:53;;;;;;;1.92;0.80;;;;;;;25.35;31.36;102074.63;4999150;28;20081;-75
2022/07/28 08:54:21;;;;;;;2.50;0.55;;;;;;;26.13;29.80;102077.72;4988640;28;20031;-77
2022/07/28 08:56:48;;;;;;;2.13;0.60;;;;;;;25.36;30.95;102071.56;4990317;28;20057;-77
2022/07/28 08:59:13;;;;;;;4.30;0.80;;;;;;;25.64;30.47;102078.94;4988164;28;20042;-75
2022/07/28 09:01:39;;;;;;;4.00;0.70;;;;;;;26.14;29.24;102066.41;4989703;28;20031;-74
2022/07/28 09:04:07;;;;;;;3.53;0.88;;;;;;;26.42;29.16;102068.13;4984007;28;20027;-73
2022/07/28 09:06:34;;;;;;;0.73;0.40;;;;;;;26.19;28.96;102063.56;4970379;28;20031;-74
2022/07/28 09:08:59;;;;;;;1.33;0.50;;;;;;;25.57;29.51;102066.66;4974814;28;20034;-73
2022/07/28 09:11:26;;;;;;;2.08;0.55;;;;;;;25.70;29.21;102080.53;4989758;28;20047;-72
2022/07/28 09:13:52;;;;;;;4.13;0.40;;;;;;;25.93;28.93;102065.03;4988094;28;20041;-74
2022/07/28 09:16:17;;;;;;;1.30;0.50;;;;;;;25.87;29.11;102057.94;4988549;28;20557;-73
2022/07/28 09:18:43;;;;;;;2.13;0.75;;;;;;;26.08;28.90;102064.84;4990855;28;20085;-74
2022/07/28 09:21:12;;;;;;;1.33;0.65;;;;;;;25.36;29.62;102057.81;4988739;28;20501;-70
2022/07/28 09:23:43;;;;;;;4.18;0.60;;;;;;;25.27;30.15;102078.84;4988495;28;20170;-70
2022/07/28 09:26:09;;;;;;;1.70;0.70;;;;;;;25.97;29.72;102066.06;4989758;28;20117;-75
2022/07/28 09:28:48;;;;;;;2.78;0.57;;;;;;;26.66;28.52;102071.56;4987051;28;20743;-77
2022/07/28 09:31:14;;;;;;;3.50;0.63;;;;;;;26.03;28.59;102062.13;4989103;28;20034;-75
2022/07/28 09:33:52;;;;;;;3.35;0.50;;;;;;;26.39;27.77;102067.91;4987764;28;20190;-78
2022/07/28 09:36:17;;;;;;;5.78;0.60;;;;;;;26.93;27.18;102062.56;4988419;28;20125;-77
2022/07/28 09:38:43;;;;;;;1.40;0.40;;;;;;;27.03;27.52;102062.34;4982479;28;20213;-78
2022/07/28 09:41:09;;;;;;;1.45;0.60;;;;;;;26.93;27.03;102060.63;4981370;28;20039;-75
2022/07/28 09:43:37;;;;;;;2.53;0.90;;;;;;;26.76;27.14;102054.88;4998977;28;20030;-74
2022/07/28 09:46:08;;;;;;;8.07;0.85;;;;;;;26.69;27.62;102045.34;4989151;28;20046;-76
2022/07/28 09:48:49;;;;;;;3.25;0.70;;;;;;;26.31;28.12;102043.81;5003503;28;20046;-76
2022/07/28 09:51:23;;;;;;;4.20;0.60;;;;;;;27.21;27.69;102047.66;5008933;28;20566;-75
2022/07/28 09:53:50;;;;;;;1.90;0.50;;;;;;;27.21;27.51;102047.66;5008283;28;20045;-75
2022/07/28 09:56:16;;;;;;;2.03;0.82;;;;;;;27.30;27.54;102054.06;5000123;28;20065;-78
2022/07/28 09:58:52;;;;;;;1.90;0.77;;;;;;;27.04;27.14;102049.38;4983246;28;20088;-75
2022/07/28 10:01:20;;;;;;;2.53;0.55;;;;;;;26.30;28.28;102042.97;5008322;28;20042;-76
2022/07/28 10:03:51;;;;;;;2.33;0.63;;;;;;;26.57;28.35;102034.81;5004815;28;20080;-77
2022/07/28 10:06:24;;;;;;;1.52;0.45;;;;;;;27.59;27.19;102042.72;4990295;28;20042;-76
2022/07/28 10:08:51;;;;;;;3.45;0.77;;;;;;;27.57;26.65;102039.47;5000973;28;20038;-79
2022/07/28 10:11:20;;;;;;;2.22;0.55;;;;;;;28.22;25.93;102032.41;5002385;28;20061;-76
2022/07/28 10:13:56;;;;;;;4.30;1.15;;;;;;;27.75;26.15;102044.81;5007466;28;20038;-77
2022/07/28 10:16:23;;;;;;;2.10;0.45;;;;;;;28.24;25.58;102049.50;4992778;28;20061;-76
2022/07/28 10:18:49;;;;;;;1.38;0.43;;;;;;;27.88;26.00;102034.88;4989182;28;20074;-76
2022/07/28 10:21:16;;;;;;;1.92;0.50;;;;;;;27.35;25.86;102036.63;4988414;28;20052;-76
2022/07/28 10:23:47;;;;;;;2.45;0.65;;;;;;;27.18;26.61;102030.88;4997694;28;20129;-75
2022/07/28 10:26:14;;;;;;;1.50;0.65;;;;;;;28.41;24.99;102030.25;5004078;28;20132;-75
2022/07/28 10:28:47;;;;;;;1.20;0.43;;;;;;;28.79;25.19;102025.13;5006042;28;20025;-70
2022/07/28 10:31:16;;;;;;;2.50;0.57;;;;;;;28.45;25.38;102019.38;5007094;28;20042;-70
2022/07/28 10:33:49;;;;;;;2.03;0.65;;;;;;;29.52;24.31;102025.19;5017760;28;20049;-70
2022/07/28 10:36:17;;;;;;;2.05;0.77;;;;;;;28.44;24.51;102017.75;5006676;28;20125;-69
2022/07/28 10:38:42;;;;;;;2.63;0.73;;;;;;;29.27;24.11;102019.59;4998414;28;20108;-70
2022/07/28 10:41:10;;;;;;;3.40;0.50;;;;;;;29.41;24.11;102017.53;5006943;28;20045;-72
2022/07/28 10:43:36;;;;;;;6.00;0.90;;;;;;;28.26;24.76;102014.06;5001156;28;20038;-73
2022/07/28 10:46:03;;;;;;;2.50;0.50;;;;;;;28.83;24.69;102011.47;5004014;28;20343;-69
2022/07/28 10:48:29;;;;;;;1.48;0.57;;;;;;;29.82;23.51;102012.38;5001478;28;20444;-72
2022/07/28 10:50:56;;;;;;;1.75;0.47;;;;;;;29.54;23.23;102007.44;5006347;28;20050;-73
2022/07/28 10:53:53;;;;;;;2.03;0.65;;;;;;;29.62;23.46;102009.41;5003934;28;20427;-72
2022/07/28 10:56:59;;;;;;;3.45;0.88;;;;;;;29.87;22.41;102003.09;5002731;28;20040;-72
2022/07/28 10:59:50;;;;;;;2.45;0.60;;;;;;;29.58;23.54;102002.88;4925265;29;20051;-73
2022/07/28 11:02:49;;;;;;;1.88;0.82;;;;;;;28.54;25.00;102001.72;4925186;29;20031;-71
2022/07/28 11:05:33;;;;;;;3.30;0.60;;;;;;;29.12;23.46;101993.16;4912092;29;20528;-71
2022/07/28 11:08:05;;;;;;;10.43;0.65;;;;;;;28.89;24.65;101993.59;4907429;29;20044;-72
2022/07/28 11:10:42;;;;;;;2.45;0.60;;;;;;;29.69;23.15;101990.34;4908157;29;20048;-71
2022/07/28 11:13:25;;;;;;;2.13;0.60;;;;;;;29.73;22.39;102002.44;4907497;29;20504;-69
2022/07/28 11:15:52;;;;;;;1.42;0.47;;;;;;;29.60;23.03;102006.16;4907355;29;20461;-71
2022/07/28 11:18:18;;;;;;;7.38;0.60;;;;;;;29.32;22.93;102005.63;4907641;29;20449;-70
2022/07/28 11:20:49;;;;;;;2.40;0.70;;;;;;;29.48;22.91;102004.03;4906987;29;20059;-71
2022/07/28 11:23:38;;;;;;;3.47;0.60;;;;;;;29.74;22.81;102004.06;4906380;29;20070;-71
2022/07/28 11:26:18;;;;;;;8.65;0.60;;;;;;;30.09;22.76;101991.81;4907114;29;20044;-72
2022/07/28 11:28:59;;;;;;;4.63;0.60;;;;;;;29.77;22.85;102003.41;4907195;29;20055;-70